createdAt,value
2022-08-04T00:02:19.321Z,10.13
2022-08-04T00:05:05.985Z,11.23
2022-08-04T00:07:43.883Z,10.23
2022-08-04T00:10:16.269Z,10.00
2022-08-04T00:12:48.847Z,10.23
2022-08-04T00:15:17.166Z,10.07
2022-08-04T00:17:58.104Z,9.33
2022-08-04T00:20:29.187Z,10.00
2022-08-04T00:22:57.170Z,8.80
2022-08-04T00:25:24.931Z,9.23
2022-08-04T00:27:51.687Z,10.53
2022-08-04T00:30:18.252Z,8.87
2022-08-04T00:32:45.409Z,9.40
2022-08-04T00:35:15.667Z,8.90
2022-08-04T00:37:45.333Z,8.57
2022-08-04T00:40:49.450Z,9.17
2022-08-04T00:43:28.293Z,8.20
2022-08-04T00:46:22.221Z,9.80
2022-08-04T00:49:13.879Z,8.60
2022-08-04T00:51:40.379Z,9.20
2022-08-04T00:54:07.349Z,8.20
2022-08-04T00:57:00.019Z,9.80
2022-08-04T01:00:09.827Z,9.10
2022-08-04T01:02:52.493Z,8.83
2022-08-04T01:05:38.051Z,7.40
2022-08-04T01:08:41.761Z,7.77
2022-08-04T01:11:24.310Z,8.07
2022-08-04T01:14:20.269Z,7.73
2022-08-04T01:16:57.891Z,7.70
2022-08-04T01:19:45.548Z,7.07
2022-08-04T01:23:03.683Z,6.87
2022-08-04T01:26:01.197Z,7.00
2022-08-04T01:28:43.530Z,7.37
2022-08-04T01:31:30.986Z,8.67
2022-08-04T01:34:04.812Z,8.00
2022-08-04T01:36:38.063Z,8.53
2022-08-04T01:39:24.781Z,7.63
2022-08-04T01:41:58.227Z,6.40
2022-08-04T01:44:28.590Z,7.57
2022-08-04T01:46:55.291Z,7.00
2022-08-04T01:49:25.263Z,7.00
2022-08-04T01:51:53.002Z,7.57
2022-08-04T01:54:19.923Z,6.90
2022-08-04T01:56:50.873Z,6.93
2022-08-04T01:59:21.494Z,7.57
2022-08-04T02:01:48.574Z,7.93
2022-08-04T02:04:18.384Z,8.03
2022-08-04T02:06:59.658Z,7.17
2022-08-04T02:09:56.380Z,7.90
2022-08-04T02:13:05.193Z,7.37
2022-08-04T02:16:06.695Z,7.87
2022-08-04T02:18:57.652Z,7.50
2022-08-04T02:21:26.850Z,7.97
2022-08-04T02:24:15.068Z,6.67
2022-08-04T02:26:46.413Z,7.83
2022-08-04T02:29:40.846Z,7.53
2022-08-04T02:32:15.684Z,7.83
2022-08-04T02:35:06.459Z,7.10
2022-08-04T02:37:33.841Z,8.43
2022-08-04T02:40:03.730Z,7.13
2022-08-04T02:42:31.793Z,7.70
2022-08-04T02:45:00.946Z,7.93
2022-08-04T02:48:29.227Z,8.63
2022-08-04T02:50:28.791Z,7.50
2022-08-04T02:53:00.335Z,7.93
2022-08-04T02:55:28.961Z,8.50
2022-08-04T02:57:58.037Z,9.20
2022-08-04T03:00:25.667Z,8.47
2022-08-04T03:03:27.107Z,7.83
2022-08-04T03:06:25.466Z,7.93
2022-08-04T03:09:07.150Z,7.93
2022-08-04T03:12:03.198Z,7.50
2022-08-04T03:14:58.423Z,8.10
2022-08-04T03:17:33.787Z,7.00
2022-08-04T03:20:34.270Z,7.67
2022-08-04T03:23:29.366Z,7.43
2022-08-04T03:26:33.070Z,7.57
2022-08-04T03:29:38.435Z,7.93
2022-08-04T03:32:27.242Z,6.97
2022-08-04T03:35:08.418Z,8.27
2022-08-04T03:37:57.297Z,6.77
2022-08-04T03:40:54.122Z,6.60
2022-08-04T03:43:57.582Z,7.90
2022-08-04T03:46:25.975Z,7.57
2022-08-04T03:49:09.199Z,6.40
2022-08-04T03:52:25.476Z,8.47
2022-08-04T03:55:11.187Z,6.87
2022-08-04T03:57:57.196Z,7.90
2022-08-04T04:00:52.719Z,7.63
2022-08-04T04:03:47.860Z,7.83
2022-08-04T04:06:52.904Z,6.30
2022-08-04T04:09:54.817Z,7.50
2022-08-04T04:12:46.929Z,6.10
2022-08-04T04:15:50.056Z,6.80
2022-08-04T04:18:27.886Z,6.30
2022-08-04T04:21:26.480Z,6.27
2022-08-04T04:24:16.494Z,6.03
2022-08-04T04:26:54.907Z,5.40
2022-08-04T04:29:50.358Z,6.33
2022-08-04T04:32:37.252Z,5.90
2022-08-04T04:35:31.757Z,5.73
2022-08-04T04:38:25.951Z,7.00
2022-08-04T04:41:20.394Z,6.93
2022-08-04T04:44:14.603Z,6.20
2022-08-04T04:47:10.011Z,7.47
2022-08-04T04:49:51.306Z,6.07
2022-08-04T04:52:38.075Z,7.17
2022-08-04T04:55:16.055Z,6.40
2022-08-04T04:57:54.555Z,6.70
2022-08-04T05:00:26.194Z,5.80
2022-08-04T05:03:17.328Z,5.83
2022-08-04T05:06:16.439Z,6.23
2022-08-04T05:08:54.446Z,5.93
2022-08-04T05:11:57.978Z,5.17
2022-08-04T05:14:41.106Z,5.80
2022-08-04T05:17:27.598Z,6.60
2022-08-04T05:20:08.291Z,5.70
2022-08-04T05:22:47.773Z,5.10
2022-08-04T05:25:21.125Z,5.67
2022-08-04T05:27:58.961Z,4.60
2022-08-04T05:30:28.685Z,5.17
2022-08-04T05:33:18.939Z,5.00
2022-08-04T05:36:17.731Z,5.20
2022-08-04T05:38:42.395Z,3.80
2022-08-04T05:41:10.795Z,3.87
2022-08-04T05:43:40.456Z,4.40
2022-08-04T05:46:09.215Z,4.30
2022-08-04T05:48:37.305Z,4.33
2022-08-04T05:51:05.273Z,4.50
2022-08-04T05:53:33.033Z,4.57
2022-08-04T05:56:02.189Z,4.90
2022-08-04T05:58:30.820Z,4.07
2022-08-04T06:01:00.687Z,4.10
2022-08-04T06:03:30.777Z,4.07
2022-08-04T06:05:58.905Z,4.13
2022-08-04T06:08:25.703Z,4.10
2022-08-04T06:10:55.500Z,3.77
2022-08-04T06:13:47.463Z,3.73
2022-08-04T06:16:28.517Z,3.90
2022-08-04T06:20:00.270Z,4.10
2022-08-04T06:21:50.288Z,4.87
2022-08-04T06:24:23.564Z,3.33
2022-08-04T06:26:51.646Z,4.38
2022-08-04T06:29:33.702Z,3.65
2022-08-04T06:32:30.161Z,3.72
2022-08-04T06:34:55.572Z,3.50
2022-08-04T06:37:41.806Z,3.58
2022-08-04T06:40:30.847Z,3.58
2022-08-04T06:43:02.753Z,3.33
2022-08-04T06:45:30.017Z,3.45
2022-08-04T06:47:58.239Z,3.65
2022-08-04T06:51:32.266Z,3.05
2022-08-04T06:53:12.231Z,3.42
2022-08-04T06:55:40.466Z,3.03
2022-08-04T06:58:08.413Z,3.05
2022-08-04T07:00:38.681Z,3.15
2022-08-04T07:03:05.601Z,3.17
2022-08-04T07:05:32.312Z,2.92
2022-08-04T07:07:59.331Z,2.67
2022-08-04T07:10:30.528Z,2.50
2022-08-04T07:12:57.939Z,3.10
2022-08-04T07:15:25.695Z,2.38
2022-08-04T07:17:53.393Z,3.13
2022-08-04T07:20:33.977Z,2.30
2022-08-04T07:23:04.476Z,2.33
2022-08-04T07:26:00.614Z,2.30
2022-08-04T07:28:20.994Z,2.03
2022-08-04T07:30:49.555Z,2.33
2022-08-04T07:33:18.203Z,2.30
2022-08-04T07:36:09.390Z,2.60
2022-08-04T07:38:33.739Z,2.40
2022-08-04T07:41:35.267Z,2.00
2022-08-04T07:43:54.686Z,2.97
2022-08-04T07:46:21.640Z,2.40
2022-08-04T07:48:48.564Z,2.15
2022-08-04T07:51:16.843Z,2.38
2022-08-04T07:53:53.381Z,2.42
2022-08-04T07:56:22.969Z,2.45
2022-08-04T07:58:50.353Z,2.40
2022-08-04T08:01:18.962Z,2.75
2022-08-04T08:03:46.603Z,3.05
2022-08-04T08:06:31.156Z,2.33
2022-08-04T08:09:12.091Z,3.42
2022-08-04T08:12:36.284Z,2.95
2022-08-04T08:14:35.549Z,3.55
2022-08-04T08:17:03.240Z,3.40
2022-08-04T08:19:34.549Z,2.72
2022-08-04T08:22:02.340Z,2.75
2022-08-04T08:24:35.903Z,3.33
2022-08-04T08:27:06.769Z,2.53
2022-08-04T08:29:35.376Z,2.40
2022-08-04T08:32:08.142Z,2.97
2022-08-04T08:34:36.021Z,3.28
2022-08-04T08:37:05.378Z,2.20
2022-08-04T08:39:40.517Z,2.83
2022-08-04T08:42:16.799Z,2.35
2022-08-04T08:45:17.934Z,2.30
2022-08-04T08:48:06.093Z,2.58
2022-08-04T08:50:52.542Z,2.10
2022-08-04T08:53:51.098Z,2.60
2022-08-04T08:56:17.554Z,2.70
2022-08-04T08:59:03.198Z,2.38
2022-08-04T09:01:59.559Z,2.72
2022-08-04T09:04:53.952Z,2.92
2022-08-04T09:07:49.018Z,2.33
2022-08-04T09:10:48.874Z,2.25
2022-08-04T09:13:36.787Z,2.55
2022-08-04T09:16:16.265Z,3.08
2022-08-04T09:19:37.531Z,2.75
2022-08-04T09:22:10.705Z,2.63
2022-08-04T09:24:54.073Z,2.78
2022-08-04T09:27:28.845Z,2.53
2022-08-04T09:30:05.375Z,2.28
2022-08-04T09:32:38.004Z,2.17
2022-08-04T09:35:22.394Z,2.00
2022-08-04T09:38:02.131Z,2.42
2022-08-04T09:40:53.808Z,2.30
2022-08-04T09:44:42.100Z,2.63
2022-08-04T09:46:29.145Z,2.28
2022-08-04T09:49:04.996Z,2.10
2022-08-04T09:51:57.191Z,2.97
2022-08-04T09:54:52.786Z,1.85
2022-08-04T09:57:38.954Z,1.67
2022-08-04T10:00:09.182Z,2.00
2022-08-04T10:02:51.363Z,1.77
2022-08-04T10:05:27.616Z,2.35
2022-08-04T10:08:16.586Z,2.25
2022-08-04T10:11:12.386Z,2.30
2022-08-04T10:13:56.574Z,2.05
2022-08-04T10:16:58.530Z,1.70
2022-08-04T10:19:32.401Z,1.80
2022-08-04T10:22:28.715Z,1.80
2022-08-04T10:26:05.707Z,1.83
2022-08-04T10:28:24.405Z,1.27
2022-08-04T10:30:55.937Z,1.42
2022-08-04T10:33:30.550Z,1.38
2022-08-04T10:36:04.831Z,1.70
2022-08-04T10:38:37.513Z,1.55
2022-08-04T10:41:12.301Z,1.67
2022-08-04T10:43:58.917Z,1.73
2022-08-04T10:46:37.446Z,1.67
2022-08-04T10:49:09.716Z,1.60
2022-08-04T10:51:58.466Z,1.40
2022-08-04T10:54:48.001Z,1.63
2022-08-04T10:57:21.130Z,1.20
2022-08-04T11:00:05.182Z,2.15
2022-08-04T11:02:39.989Z,1.80
2022-08-04T11:05:25.792Z,2.22
2022-08-04T11:07:59.597Z,1.35
2022-08-04T11:10:32.284Z,1.45
2022-08-04T11:13:04.833Z,1.30
2022-08-04T11:15:40.198Z,1.85
2022-08-04T11:18:16.178Z,1.80
2022-08-04T11:20:52.970Z,1.70
2022-08-04T11:23:26.524Z,1.40
2022-08-04T11:26:00.739Z,1.58
2022-08-04T11:29:03.270Z,1.70
2022-08-04T11:31:39.835Z,1.95
2022-08-04T11:34:20.717Z,1.52
2022-08-04T11:37:00.359Z,1.50
2022-08-04T11:39:36.287Z,1.80
2022-08-04T11:42:27.100Z,1.70
2022-08-04T11:45:06.302Z,1.77
2022-08-04T11:47:41.593Z,1.80
2022-08-04T11:50:21.043Z,1.77
2022-08-04T11:52:48.907Z,2.03
2022-08-04T11:55:17.901Z,1.85
2022-08-04T11:57:44.978Z,1.85
2022-08-04T12:00:14.823Z,2.25
2022-08-04T12:02:59.083Z,1.83
2022-08-04T12:05:41.522Z,1.40
2022-08-04T12:08:36.367Z,1.33
2022-08-04T12:11:21.412Z,2.05
2022-08-04T12:14:17.223Z,1.58
2022-08-04T12:17:04.446Z,1.48
2022-08-04T12:20:04.658Z,1.60
2022-08-04T12:22:40.802Z,1.50
2022-08-04T12:25:11.854Z,1.52
2022-08-04T12:27:43.831Z,1.27
2022-08-04T12:30:58.211Z,1.52
2022-08-04T12:33:10.671Z,1.50
2022-08-04T12:36:10.317Z,2.22
2022-08-04T12:38:33.429Z,1.80
2022-08-04T12:41:04.986Z,1.20
2022-08-04T12:43:47.149Z,1.10
2022-08-04T12:46:23.561Z,1.10
2022-08-04T12:48:51.238Z,1.45
2022-08-04T12:51:30.933Z,1.38
2022-08-04T12:54:07.234Z,2.03
2022-08-04T12:56:34.685Z,1.30
2022-08-04T12:59:13.014Z,1.48
2022-08-04T13:02:07.883Z,1.33
2022-08-04T13:04:34.748Z,1.35
2022-08-04T13:07:12.798Z,1.35
2022-08-04T13:09:41.155Z,1.50
2022-08-04T13:12:32.417Z,1.50
2022-08-04T13:15:18.506Z,1.25
2022-08-04T13:18:03.938Z,1.20
2022-08-04T13:20:39.164Z,1.20
2022-08-04T13:23:11.715Z,1.55
2022-08-04T13:26:43.390Z,1.48
2022-08-04T13:28:34.362Z,1.13
2022-08-04T13:31:05.464Z,1.20
2022-08-04T13:33:35.355Z,1.45
2022-08-04T13:36:02.747Z,1.10
2022-08-04T13:38:31.249Z,1.73
2022-08-04T13:41:02.871Z,1.13
2022-08-04T13:44:15.495Z,1.50
2022-08-04T13:46:28.028Z,1.50
2022-08-04T13:49:31.247Z,1.10
2022-08-04T13:51:58.013Z,1.45
2022-08-04T13:54:46.876Z,1.42
2022-08-04T13:57:27.759Z,1.38
2022-08-04T13:59:59.976Z,1.27
2022-08-04T14:02:41.528Z,1.73
2022-08-04T14:05:27.011Z,1.52
2022-08-04T14:08:06.583Z,1.35
2022-08-04T14:10:34.717Z,1.67
2022-08-04T14:13:04.243Z,1.48
2022-08-04T14:16:01.206Z,1.65
2022-08-04T14:18:32.228Z,1.20
2022-08-04T14:21:11.285Z,1.40
2022-08-04T14:23:54.008Z,1.35
2022-08-04T14:26:31.579Z,1.88
2022-08-04T14:29:28.313Z,1.52
2022-08-04T14:32:05.529Z,1.73
2022-08-04T14:34:39.314Z,1.65
2022-08-04T14:37:16.267Z,1.40
2022-08-04T14:40:08.964Z,1.73
2022-08-04T14:42:55.401Z,1.55
2022-08-04T14:45:37.011Z,1.42
2022-08-04T14:48:11.653Z,1.20
2022-08-04T14:50:43.861Z,1.48
2022-08-04T14:53:30.778Z,1.70
2022-08-04T14:56:01.066Z,1.52
2022-08-04T14:58:38.839Z,1.77
2022-08-04T15:01:12.360Z,1.40
2022-08-04T15:03:52.081Z,2.55
2022-08-04T15:06:23.222Z,3.72
2022-08-04T15:08:51.718Z,3.38
2022-08-04T15:11:23.660Z,4.18
2022-08-04T15:13:55.652Z,2.90
2022-08-04T15:16:24.346Z,2.55
2022-08-04T15:18:54.878Z,2.65
2022-08-04T15:21:28.098Z,1.92
2022-08-04T15:23:59.017Z,1.83
2022-08-04T15:26:33.611Z,2.10
2022-08-04T15:29:10.989Z,1.77
2022-08-04T15:32:05.339Z,2.40
2022-08-04T15:34:43.113Z,1.97
2022-08-04T15:37:10.823Z,2.60
2022-08-04T15:40:09.476Z,2.33
2022-08-04T15:42:43.877Z,2.43
2022-08-04T15:46:02.048Z,2.10
2022-08-04T15:48:12.027Z,2.10
2022-08-04T15:51:02.868Z,2.07
2022-08-04T15:54:01.361Z,1.93
2022-08-04T15:56:26.395Z,2.20
2022-08-04T15:58:57.575Z,2.57
2022-08-04T16:01:24.814Z,2.40
2022-08-04T16:03:58.247Z,2.70
2022-08-04T16:06:29.583Z,1.50
2022-08-04T16:09:03.852Z,2.00
2022-08-04T16:11:32.541Z,1.90
2022-08-04T16:13:59.751Z,1.63
2022-08-04T16:16:27.818Z,1.57
2022-08-04T16:18:54.927Z,1.37
2022-08-04T16:21:24.243Z,1.80
2022-08-04T16:24:05.812Z,1.90
2022-08-04T16:26:45.440Z,1.43
2022-08-04T16:29:38.223Z,1.40
2022-08-04T16:32:04.766Z,1.70
2022-08-04T16:34:47.898Z,1.37
2022-08-04T16:37:19.087Z,1.50
2022-08-04T16:39:51.304Z,1.50
2022-08-04T16:42:27.487Z,1.50
2022-08-04T16:45:09.127Z,1.97
2022-08-04T16:47:47.519Z,2.10
2022-08-04T16:50:19.630Z,1.67
2022-08-04T16:52:51.595Z,1.50
2022-08-04T16:55:19.959Z,2.43
2022-08-04T16:57:47.301Z,1.80
2022-08-04T17:00:14.595Z,2.10
2022-08-04T17:02:41.567Z,1.90
2022-08-04T17:05:39.058Z,2.40
2022-08-04T17:10:55.805Z,2.50
2022-08-04T17:14:02.531Z,2.63
2022-08-04T17:16:18.252Z,2.90
2022-08-04T17:18:48.168Z,2.30
2022-08-04T17:21:22.631Z,3.10
2022-08-04T17:24:16.545Z,2.23
2022-08-04T17:26:45.261Z,3.40
2022-08-04T17:29:20.051Z,2.37
2022-08-04T17:31:47.011Z,2.00
2022-08-04T17:34:19.502Z,2.60
2022-08-04T17:36:48.073Z,2.37
2022-08-04T17:39:23.242Z,2.50
2022-08-04T17:41:56.075Z,2.03
2022-08-04T17:44:38.431Z,2.37
2022-08-04T17:47:16.761Z,2.63
2022-08-04T17:49:52.533Z,2.90
2022-08-04T17:52:41.432Z,2.53
2022-08-04T17:55:16.416Z,2.57
2022-08-04T17:57:52.628Z,3.00
2022-08-04T18:00:20.050Z,2.57
2022-08-04T18:02:54.463Z,2.60
2022-08-04T18:05:50.278Z,2.20
2022-08-04T18:08:39.659Z,2.50
2022-08-04T18:11:03.566Z,3.03
2022-08-04T18:13:31.257Z,2.30
2022-08-04T18:16:21.745Z,3.00
2022-08-04T18:19:10.244Z,2.60
2022-08-04T18:21:46.730Z,2.57
2022-08-04T18:24:34.773Z,2.03
2022-08-04T18:27:10.110Z,1.83
2022-08-04T18:29:41.222Z,3.13
2022-08-04T18:32:33.003Z,2.33
2022-08-04T18:35:05.713Z,3.20
2022-08-04T18:38:05.801Z,2.70
2022-08-04T18:40:34.311Z,2.60
2022-08-04T18:43:08.611Z,3.50
2022-08-04T18:45:41.142Z,2.60
2022-08-04T18:48:17.912Z,2.80
2022-08-04T18:51:09.693Z,2.33
2022-08-04T18:53:35.797Z,2.70
2022-08-04T18:56:06.098Z,2.10
2022-08-04T18:58:32.971Z,2.73
2022-08-04T19:01:01.113Z,2.60
2022-08-04T19:03:30.786Z,2.70
2022-08-04T19:06:02.312Z,2.60
2022-08-04T19:11:53.372Z,2.50
2022-08-04T19:14:05.095Z,2.63
2022-08-04T19:16:33.991Z,2.90
2022-08-04T19:19:05.618Z,2.60
2022-08-04T19:21:59.958Z,3.40
2022-08-04T19:27:08.682Z,2.70
2022-08-04T19:29:41.035Z,2.93
2022-08-04T19:32:13.875Z,3.20
2022-08-04T19:34:42.493Z,2.90
2022-08-04T19:37:20.369Z,2.73
2022-08-04T19:40:00.672Z,3.50
2022-08-04T19:42:27.291Z,2.50
2022-08-04T19:44:53.812Z,3.13
2022-08-04T19:48:21.732Z,3.30
2022-08-04T19:52:54.398Z,2.97
2022-08-04T19:55:37.393Z,2.63
2022-08-04T19:58:08.511Z,3.30
2022-08-04T20:00:37.415Z,3.17
2022-08-04T20:03:11.581Z,2.70
2022-08-04T20:05:53.127Z,2.40
2022-08-04T20:08:21.410Z,3.60
2022-08-04T20:10:51.459Z,2.57
2022-08-04T20:13:19.814Z,2.60
2022-08-04T20:18:36.505Z,2.50
2022-08-04T20:21:36.589Z,2.50
2022-08-04T20:24:38.909Z,2.70
2022-08-04T20:26:54.061Z,3.40
2022-08-04T20:29:40.300Z,3.47
2022-08-04T20:32:08.778Z,2.77
2022-08-04T20:34:37.131Z,2.47
2022-08-04T20:37:03.910Z,2.33
2022-08-04T20:39:30.770Z,2.77
2022-08-04T20:41:57.928Z,3.23
2022-08-04T20:44:24.549Z,3.27
2022-08-04T20:46:51.114Z,3.17
2022-08-04T20:49:17.797Z,3.27
2022-08-04T20:51:44.375Z,3.10
2022-08-04T20:54:16.885Z,2.97
2022-08-04T20:56:51.118Z,2.83
2022-08-04T20:59:18.923Z,3.57
2022-08-04T21:01:49.024Z,3.23
2022-08-04T21:04:32.244Z,3.43
2022-08-04T21:07:07.603Z,2.83
2022-08-04T21:09:38.337Z,3.13
2022-08-04T21:12:11.008Z,3.23
2022-08-04T21:15:01.147Z,3.73
2022-08-04T21:17:59.523Z,3.40
2022-08-04T21:20:27.654Z,3.87
2022-08-04T21:22:54.989Z,3.30
2022-08-04T21:25:22.195Z,3.30
2022-08-04T21:27:48.785Z,3.90
2022-08-04T21:30:23.915Z,3.10
2022-08-04T21:32:52.071Z,3.60
2022-08-04T21:35:19.015Z,3.43
2022-08-04T21:37:58.225Z,3.77
2022-08-04T21:40:36.763Z,5.20
2022-08-04T21:43:05.782Z,4.27
2022-08-04T21:45:36.251Z,5.07
2022-08-04T21:48:04.748Z,5.37
2022-08-04T21:50:31.376Z,4.37
2022-08-04T21:52:58.962Z,4.67
2022-08-04T21:56:04.366Z,3.90
2022-08-04T21:58:13.353Z,7.37
2022-08-04T22:00:40.717Z,4.67
2022-08-04T22:03:11.335Z,4.87
2022-08-04T22:05:55.322Z,4.80
2022-08-04T22:08:23.434Z,4.90
2022-08-04T22:10:50.286Z,4.57
2022-08-04T22:13:22.660Z,5.33
2022-08-04T22:16:03.701Z,5.30
2022-08-04T22:18:32.382Z,4.70
2022-08-04T22:21:04.457Z,5.40
2022-08-04T22:23:44.904Z,5.30
2022-08-04T22:26:26.897Z,4.93
2022-08-04T22:28:56.193Z,5.90
2022-08-04T22:31:24.902Z,5.80
2022-08-04T22:33:55.298Z,7.13
2022-08-04T22:36:22.713Z,7.20
2022-08-04T22:39:00.276Z,7.57
2022-08-04T22:41:34.220Z,7.67
2022-08-04T22:44:15.938Z,8.40
2022-08-04T22:46:43.068Z,9.07
2022-08-04T22:49:09.624Z,7.63
2022-08-04T22:51:36.188Z,8.03
2022-08-04T22:54:02.754Z,8.93
2022-08-04T22:56:39.282Z,9.47
2022-08-04T22:59:10.841Z,11.27
2022-08-04T23:02:00.121Z,10.97
2022-08-04T23:04:25.633Z,10.93
2022-08-04T23:06:54.715Z,13.03
2022-08-04T23:09:26.973Z,12.90
2022-08-04T23:12:24.387Z,13.93
2022-08-04T23:14:54.985Z,12.37
2022-08-04T23:17:22.308Z,12.97
2022-08-04T23:19:58.072Z,14.60
2022-08-04T23:22:36.929Z,12.00
2022-08-04T23:25:04.628Z,14.90
2022-08-04T23:27:40.246Z,14.33
2022-08-04T23:30:11.247Z,13.63
2022-08-04T23:32:38.119Z,13.77
2022-08-04T23:35:05.108Z,14.03
2022-08-04T23:37:36.688Z,13.50
2022-08-04T23:40:32.763Z,16.20
2022-08-04T23:43:00.824Z,14.53
2022-08-04T23:46:04.229Z,15.63
2022-08-04T23:48:19.405Z,16.33
2022-08-04T23:50:47.798Z,16.27
2022-08-04T23:53:18.461Z,15.97
2022-08-04T23:55:49.176Z,16.73
2022-08-04T23:58:18.778Z,16.60
